createdAt,value
2022-09-07T00:01:00.635Z,18.58
2022-09-07T00:03:29.290Z,18.49
2022-09-07T00:05:57.258Z,18.48
2022-09-07T00:08:27.175Z,18.44
2022-09-07T00:10:57.494Z,18.35
2022-09-07T00:13:27.847Z,18.32
2022-09-07T00:15:57.270Z,18.38
2022-09-07T00:18:26.283Z,18.43
2022-09-07T00:21:00.758Z,18.38
2022-09-07T00:23:30.007Z,18.35
2022-09-07T00:26:01.668Z,18.34
2022-09-07T00:28:30.175Z,18.37
2022-09-07T00:30:59.930Z,18.25
2022-09-07T00:33:28.635Z,18.25
2022-09-07T00:35:56.474Z,18.30
2022-09-07T00:38:24.852Z,18.32
2022-09-07T00:40:53.316Z,18.27
2022-09-07T00:43:32.352Z,18.38
2022-09-07T00:46:02.032Z,18.40
2022-09-07T00:48:36.883Z,18.45
2022-09-07T00:51:09.114Z,18.47
2022-09-07T00:53:42.765Z,18.47
2022-09-07T00:56:12.074Z,18.42
2022-09-07T00:58:43.576Z,18.41
2022-09-07T01:01:13.031Z,18.47
2022-09-07T01:03:45.277Z,18.45
2022-09-07T01:06:17.483Z,18.35
2022-09-07T01:08:47.629Z,18.41
2022-09-07T01:11:15.452Z,18.42
2022-09-07T01:13:46.428Z,18.42
2022-09-07T01:16:25.901Z,18.35
2022-09-07T01:19:05.908Z,18.41
2022-09-07T01:21:48.735Z,18.43
2022-09-07T01:24:41.262Z,18.41
2022-09-07T01:27:56.735Z,18.35
2022-09-07T01:30:25.592Z,18.27
2022-09-07T01:33:06.904Z,18.16
2022-09-07T01:35:43.935Z,18.16
2022-09-07T01:38:19.531Z,18.11
2022-09-07T01:40:53.599Z,18.10
2022-09-07T01:43:30.060Z,18.16
2022-09-07T01:45:59.685Z,18.10
2022-09-07T01:48:28.516Z,17.98
2022-09-07T01:51:01.908Z,18.07
2022-09-07T01:53:35.181Z,18.00
2022-09-07T01:56:07.587Z,17.98
2022-09-07T01:58:42.141Z,18.01
2022-09-07T02:01:13.356Z,18.05
2022-09-07T02:03:46.319Z,18.17
2022-09-07T02:06:18.292Z,18.23
2022-09-07T02:08:53.774Z,17.88
2022-09-07T02:11:24.142Z,17.77
2022-09-07T02:13:56.970Z,17.90
2022-09-07T02:16:28.526Z,18.01
2022-09-07T02:18:58.127Z,17.94
2022-09-07T02:21:32.040Z,17.87
2022-09-07T02:24:05.358Z,17.74
2022-09-07T02:26:35.762Z,17.72
2022-09-07T02:29:05.262Z,17.70
2022-09-07T02:31:33.287Z,17.77
2022-09-07T02:34:02.334Z,17.70
2022-09-07T02:36:35.827Z,17.64
2022-09-07T02:39:04.257Z,17.69
2022-09-07T02:41:35.097Z,17.72
2022-09-07T02:44:08.289Z,17.72
2022-09-07T02:46:57.457Z,17.78
2022-09-07T02:49:40.034Z,17.73
2022-09-07T02:52:18.229Z,17.68
2022-09-07T02:54:57.775Z,17.78
2022-09-07T02:57:37.506Z,17.68
2022-09-07T03:00:11.423Z,17.71
2022-09-07T03:02:52.193Z,17.78
2022-09-07T03:05:25.167Z,17.79
2022-09-07T03:08:01.146Z,17.76
2022-09-07T03:10:30.270Z,17.76
2022-09-07T03:12:58.116Z,17.66
2022-09-07T03:15:28.853Z,17.60
2022-09-07T03:17:56.700Z,17.62
2022-09-07T03:20:25.296Z,17.75
2022-09-07T03:22:53.871Z,17.89
2022-09-07T03:25:23.119Z,17.77
2022-09-07T03:27:50.933Z,17.72
2022-09-07T03:30:19.165Z,17.60
2022-09-07T03:32:48.437Z,17.63
2022-09-07T03:35:18.383Z,17.62
2022-09-07T03:37:46.229Z,17.62
2022-09-07T03:40:15.748Z,17.64
2022-09-07T03:42:43.896Z,17.60
2022-09-07T03:45:12.804Z,17.61
2022-09-07T03:47:40.751Z,17.62
2022-09-07T03:50:10.905Z,17.63
2022-09-07T03:52:39.526Z,17.76
2022-09-07T03:55:07.893Z,17.87
2022-09-07T03:57:35.802Z,17.93
2022-09-07T04:00:05.334Z,18.09
2022-09-07T04:02:33.241Z,18.13
2022-09-07T04:05:01.410Z,18.16
2022-09-07T04:07:30.589Z,18.14
2022-09-07T04:09:58.761Z,18.07
2022-09-07T04:12:26.619Z,18.07
2022-09-07T04:14:54.753Z,18.05
2022-09-07T04:17:22.755Z,17.95
2022-09-07T04:19:50.912Z,18.00
2022-09-07T04:22:18.776Z,17.89
2022-09-07T04:24:48.329Z,17.80
2022-09-07T04:27:16.131Z,17.80
2022-09-07T04:29:44.342Z,17.73
2022-09-07T04:32:15.656Z,17.71
2022-09-07T04:34:44.151Z,17.56
2022-09-07T04:37:12.513Z,17.53
2022-09-07T04:39:40.652Z,17.43
2022-09-07T04:42:09.914Z,17.50
2022-09-07T04:44:38.079Z,17.46
2022-09-07T04:47:06.038Z,17.48
2022-09-07T04:49:34.198Z,17.63
2022-09-07T04:52:02.121Z,17.77
2022-09-07T04:54:30.314Z,17.82
2022-09-07T04:56:58.118Z,17.94
2022-09-07T04:59:27.957Z,18.20
2022-09-07T05:01:55.779Z,18.35
2022-09-07T05:04:24.043Z,18.26
2022-09-07T05:06:51.874Z,18.33
2022-09-07T05:09:20.038Z,18.52
2022-09-07T05:11:47.884Z,18.62
2022-09-07T05:14:15.736Z,18.65
2022-09-07T05:16:45.229Z,18.75
2022-09-07T05:19:15.151Z,18.73
2022-09-07T05:21:42.957Z,18.74
2022-09-07T05:24:11.580Z,18.86
2022-09-07T05:26:42.441Z,18.97
2022-09-07T05:32:03.863Z,19.24
2022-09-07T05:34:32.536Z,19.36
2022-09-07T05:37:01.076Z,19.55
2022-09-07T05:39:29.829Z,19.61
2022-09-07T05:41:58.055Z,19.54
2022-09-07T05:47:11.751Z,19.84
2022-09-07T05:49:40.345Z,19.94
2022-09-07T05:52:08.456Z,20.37
2022-09-07T05:54:39.649Z,20.63
2022-09-07T05:57:10.418Z,20.98
2022-09-07T05:59:38.755Z,21.10
2022-09-07T06:02:07.081Z,20.99
2022-09-07T06:04:36.797Z,21.06
2022-09-07T06:07:20.969Z,21.23
2022-09-07T06:12:38.184Z,21.31
2022-09-07T06:15:07.333Z,21.28
2022-09-07T06:17:38.617Z,21.43
2022-09-07T06:20:09.716Z,21.75
2022-09-07T06:22:38.427Z,21.79
2022-09-07T06:25:07.536Z,22.01
2022-09-07T06:27:35.498Z,22.16
2022-09-07T06:30:03.833Z,21.78
2022-09-07T06:32:47.110Z,21.62
2022-09-07T06:35:16.916Z,21.75
2022-09-07T06:37:45.476Z,21.85
2022-09-07T06:40:13.557Z,22.26
2022-09-07T06:42:41.492Z,22.80
2022-09-07T06:45:11.949Z,25.00
2022-09-07T06:47:40.610Z,26.26
2022-09-07T06:50:09.859Z,26.55
2022-09-07T06:55:28.878Z,27.84
2022-09-07T06:57:57.113Z,25.99
2022-09-07T07:00:25.048Z,24.56
2022-09-07T07:02:53.397Z,23.83
2022-09-07T07:05:23.821Z,24.54
2022-09-07T07:07:53.642Z,24.62
2022-09-07T07:10:24.748Z,24.82
2022-09-07T07:12:57.894Z,24.55
2022-09-07T07:15:28.530Z,24.02
2022-09-07T07:18:05.196Z,23.99
2022-09-07T07:20:44.182Z,23.82
2022-09-07T07:23:14.338Z,23.66
2022-09-07T07:25:42.211Z,23.65
2022-09-07T07:30:59.712Z,23.51
2022-09-07T07:33:31.993Z,23.44
2022-09-07T07:36:14.031Z,23.59
2022-09-07T07:39:02.374Z,23.71
2022-09-07T07:44:21.051Z,23.68
2022-09-07T07:46:50.728Z,23.83
2022-09-07T07:49:19.195Z,23.95
2022-09-07T07:54:37.334Z,24.78
2022-09-07T07:57:05.730Z,25.19
2022-09-07T07:59:34.110Z,25.77
2022-09-07T08:02:04.598Z,25.63
2022-09-07T08:04:34.046Z,25.99
2022-09-07T08:07:06.980Z,26.38
2022-09-07T08:09:40.566Z,26.41
2022-09-07T08:12:08.941Z,26.10
2022-09-07T08:14:41.488Z,26.69
2022-09-07T08:17:10.290Z,28.11
2022-09-07T08:19:38.293Z,28.66
2022-09-07T08:22:07.165Z,29.81
2022-09-07T08:24:35.645Z,30.31
2022-09-07T08:27:05.886Z,31.19
2022-09-07T08:29:35.350Z,32.13
2022-09-07T08:32:05.310Z,30.87
2022-09-07T08:34:33.391Z,30.18
2022-09-07T08:37:01.034Z,28.62
2022-09-07T08:39:29.038Z,27.33
2022-09-07T08:42:20.442Z,26.63
2022-09-07T08:44:52.204Z,27.49
2022-09-07T08:47:30.294Z,30.18
2022-09-07T08:50:04.123Z,29.54
2022-09-07T08:52:42.410Z,29.80
2022-09-07T08:55:16.663Z,31.48
2022-09-07T08:57:50.357Z,31.42
2022-09-07T09:00:19.323Z,33.05
2022-09-07T09:03:28.619Z,34.39
2022-09-07T09:05:43.009Z,36.51
2022-09-07T09:08:23.189Z,37.24
2022-09-07T09:11:02.835Z,35.24
2022-09-07T09:13:42.828Z,34.99
2022-09-07T09:16:19.198Z,32.81
2022-09-07T09:19:01.580Z,35.16
2022-09-07T09:21:29.617Z,37.84
2022-09-07T09:24:06.714Z,37.92
2022-09-07T09:26:36.318Z,36.48
2022-09-07T09:29:15.162Z,35.33
2022-09-07T09:31:43.214Z,36.97
2022-09-07T09:34:13.166Z,39.44
2022-09-07T09:36:49.104Z,39.40
2022-09-07T09:39:28.050Z,38.62
2022-09-07T09:41:58.731Z,37.20
2022-09-07T09:44:33.270Z,38.38
2022-09-07T09:49:51.733Z,40.62
2022-09-07T09:52:33.639Z,41.60
2022-09-07T10:06:23.980Z,41.64
2022-09-07T10:08:57.950Z,41.32
2022-09-07T10:14:37.431Z,42.02
2022-09-07T10:17:24.829Z,39.41
2022-09-07T10:19:52.734Z,38.78
2022-09-07T10:22:26.052Z,37.47
2022-09-07T10:24:54.078Z,37.43
2022-09-07T10:27:33.349Z,38.30
2022-09-07T10:30:01.909Z,39.49
2022-09-07T10:32:58.412Z,40.48
2022-09-07T10:35:30.698Z,41.37
2022-09-07T10:38:10.464Z,40.34
2022-09-07T10:40:44.028Z,39.32
2022-09-07T10:43:35.468Z,38.65
2022-09-07T10:49:23.963Z,39.10
2022-09-07T10:52:05.596Z,39.72
2022-09-07T10:54:44.409Z,38.42
2022-09-07T10:57:39.389Z,38.27
2022-09-07T11:00:12.559Z,37.94
2022-09-07T11:05:56.545Z,37.96
2022-09-07T11:09:15.472Z,38.41
2022-09-07T11:14:21.015Z,39.14
2022-09-07T11:16:54.442Z,39.59
2022-09-07T11:19:41.794Z,39.23
2022-09-07T11:22:23.809Z,37.72
2022-09-07T11:27:49.955Z,34.21
2022-09-07T11:30:21.756Z,34.38
2022-09-07T11:32:56.730Z,35.36
2022-09-07T11:35:33.245Z,35.25
2022-09-07T11:38:10.951Z,35.09
2022-09-07T11:40:45.265Z,33.90
2022-09-07T11:43:21.239Z,33.31
2022-09-07T11:45:53.756Z,33.67
2022-09-07T11:48:30.278Z,33.13
2022-09-07T11:51:04.352Z,33.50
2022-09-07T11:53:35.920Z,33.60
2022-09-07T11:56:08.301Z,33.34
2022-09-07T11:59:01.295Z,32.86
2022-09-07T12:01:40.183Z,32.61
2022-09-07T12:04:32.059Z,32.68
2022-09-07T12:07:32.226Z,33.73
2022-09-07T12:10:26.970Z,34.16
2022-09-07T12:13:28.219Z,34.12
2022-09-07T12:16:04.852Z,34.49
2022-09-07T12:18:54.767Z,34.07
2022-09-07T12:21:33.163Z,34.16
2022-09-07T12:24:01.095Z,34.05
2022-09-07T12:26:50.565Z,33.70
2022-09-07T12:29:24.713Z,33.33
2022-09-07T12:32:07.234Z,32.63
2022-09-07T12:35:01.265Z,32.52
2022-09-07T12:37:41.911Z,31.40
2022-09-07T12:40:49.577Z,31.60
2022-09-07T12:43:36.975Z,31.04
2022-09-07T12:46:04.785Z,31.08
2022-09-07T12:48:50.490Z,30.97
2022-09-07T12:54:27.458Z,30.66
2022-09-07T13:00:02.886Z,30.94
2022-09-07T13:02:51.883Z,30.68
2022-09-07T13:05:31.872Z,30.61
2022-09-07T13:08:16.297Z,30.81
2022-09-07T13:10:45.060Z,30.64
2022-09-07T13:14:02.624Z,30.95
2022-09-07T13:17:16.147Z,31.05
2022-09-07T13:20:03.063Z,31.07
2022-09-07T13:22:56.740Z,31.25
2022-09-07T13:25:46.870Z,31.04
2022-09-07T13:28:26.321Z,30.93
2022-09-07T13:31:06.475Z,30.93
2022-09-07T13:33:48.491Z,30.99
2022-09-07T13:36:25.499Z,30.71
2022-09-07T13:38:54.939Z,30.44
2022-09-07T13:41:26.122Z,30.45
2022-09-07T13:44:00.457Z,30.75
2022-09-07T13:46:45.155Z,31.15
2022-09-07T13:49:27.698Z,30.99
2022-09-07T13:52:03.627Z,31.57
2022-09-07T13:54:51.714Z,31.27
2022-09-07T13:57:28.473Z,31.04
2022-09-07T13:59:58.171Z,31.29
2022-09-07T14:02:29.692Z,31.58
2022-09-07T14:05:01.374Z,31.64
2022-09-07T14:07:30.831Z,31.77
2022-09-07T14:10:08.214Z,32.07
2022-09-07T14:12:43.448Z,31.74
2022-09-07T14:15:20.262Z,31.06
2022-09-07T14:17:49.458Z,31.36
2022-09-07T14:20:19.753Z,31.34
2022-09-07T14:22:52.081Z,31.12
2022-09-07T14:25:22.586Z,31.20
2022-09-07T14:27:51.117Z,31.22
2022-09-07T14:30:25.338Z,31.40
2022-09-07T14:32:54.889Z,31.07
2022-09-07T14:35:26.537Z,30.97
2022-09-07T14:37:54.468Z,31.42
2022-09-07T14:40:24.772Z,31.38
2022-09-07T14:42:55.191Z,31.30
2022-09-07T14:45:34.747Z,31.25
2022-09-07T14:48:13.265Z,31.31
2022-09-07T14:50:57.237Z,31.21
2022-09-07T14:53:37.053Z,31.35
2022-09-07T14:56:10.956Z,31.58
2022-09-07T14:58:38.739Z,31.71
2022-09-07T15:04:18.373Z,31.78
2022-09-07T15:07:03.600Z,31.99
2022-09-07T15:09:37.069Z,32.13
2022-09-07T15:12:15.127Z,31.87
2022-09-07T15:14:43.388Z,31.43
2022-09-07T15:20:37.194Z,31.13
2022-09-07T15:23:09.552Z,30.62
2022-09-07T15:25:37.980Z,30.67
2022-09-07T15:28:06.197Z,30.41
2022-09-07T15:30:34.767Z,30.47
2022-09-07T15:33:02.519Z,30.08
2022-09-07T15:35:30.593Z,29.80
2022-09-07T15:38:58.850Z,29.02
2022-09-07T15:41:18.237Z,29.03
2022-09-07T15:43:39.042Z,28.88
2022-09-07T15:46:07.313Z,28.99
2022-09-07T15:48:36.311Z,28.75
2022-09-07T15:52:04.727Z,28.79
2022-09-07T15:57:48.276Z,28.68
2022-09-07T15:59:32.538Z,28.81
2022-09-07T16:02:00.694Z,28.73
2022-09-07T16:04:28.813Z,28.59
2022-09-07T16:06:56.860Z,28.63
2022-09-07T16:09:24.789Z,28.51
2022-09-07T16:11:54.491Z,28.49
2022-09-07T16:14:22.219Z,28.35
2022-09-07T16:19:41.051Z,28.23
2022-09-07T16:22:09.959Z,28.09
2022-09-07T16:24:37.868Z,28.05
2022-09-07T16:27:07.162Z,27.89
2022-09-07T16:29:34.785Z,27.73
2022-09-07T16:34:51.219Z,27.25
2022-09-07T16:37:18.954Z,27.38
2022-09-07T16:39:46.637Z,27.35
2022-09-07T16:42:15.698Z,27.35
2022-09-07T16:44:43.638Z,27.25
2022-09-07T16:47:13.029Z,27.22
2022-09-07T16:49:40.658Z,27.42
2022-09-07T16:52:10.993Z,27.27
2022-09-07T16:54:38.780Z,27.11
2022-09-07T16:57:06.938Z,27.05
2022-09-07T16:59:35.924Z,27.06
2022-09-07T17:02:03.922Z,26.92
2022-09-07T17:04:31.793Z,26.77
2022-09-07T17:06:59.548Z,26.59
2022-09-07T17:09:28.692Z,26.50
2022-09-07T17:11:56.841Z,26.52
2022-09-07T17:14:24.502Z,26.34
2022-09-07T17:16:53.606Z,26.22
2022-09-07T17:19:29.792Z,26.14
2022-09-07T17:21:59.971Z,26.05
2022-09-07T17:24:27.614Z,25.97
2022-09-07T17:26:55.387Z,26.05
2022-09-07T17:29:23.156Z,25.89
2022-09-07T17:34:40.086Z,25.56
2022-09-07T17:37:09.115Z,25.54
2022-09-07T17:39:38.626Z,25.47
2022-09-07T17:42:06.900Z,25.43
2022-09-07T17:44:38.006Z,25.32
2022-09-07T17:47:06.808Z,25.35
2022-09-07T17:49:34.559Z,25.46
2022-09-07T17:52:04.800Z,25.49
2022-09-07T17:54:32.800Z,25.49
2022-09-07T17:57:00.879Z,25.32
2022-09-07T18:02:17.851Z,25.29
2022-09-07T18:04:45.656Z,25.12
2022-09-07T18:07:15.651Z,25.15
2022-09-07T18:09:43.599Z,24.91
2022-09-07T18:12:11.706Z,24.84
2022-09-07T18:14:39.450Z,24.67
2022-09-07T18:17:07.496Z,24.56
2022-09-07T18:19:36.348Z,24.50
2022-09-07T18:22:04.477Z,24.37
2022-09-07T18:24:36.807Z,24.16
2022-09-07T18:27:05.912Z,24.00
2022-09-07T18:29:34.511Z,24.13
2022-09-07T18:32:04.804Z,24.45
2022-09-07T18:34:35.460Z,24.29
2022-09-07T18:37:03.487Z,24.22
2022-09-07T18:39:32.283Z,24.04
2022-09-07T18:42:01.691Z,23.89
2022-09-07T18:47:27.886Z,23.39
2022-09-07T18:49:56.359Z,23.27
2022-09-07T18:55:12.264Z,23.02
2022-09-07T18:57:41.640Z,22.94
2022-09-07T19:00:10.972Z,22.81
2022-09-07T19:02:39.080Z,22.58
2022-09-07T19:07:55.336Z,22.33
2022-09-07T19:10:23.099Z,22.18
2022-09-07T19:12:52.472Z,22.07
2022-09-07T19:15:21.197Z,21.90
2022-09-07T19:17:48.957Z,21.79
2022-09-07T19:20:17.371Z,21.68
2022-09-07T19:22:45.063Z,21.61
2022-09-07T19:25:12.801Z,21.62
2022-09-07T19:27:40.862Z,21.53
2022-09-07T19:30:11.097Z,21.39
2022-09-07T19:32:39.151Z,21.35
2022-09-07T19:35:07.199Z,21.41
2022-09-07T19:37:35.301Z,21.52
2022-09-07T19:40:03.456Z,21.49
2022-09-07T19:42:31.449Z,21.43
2022-09-07T19:44:59.454Z,21.23
2022-09-07T19:47:28.846Z,21.24
2022-09-07T19:49:56.528Z,21.25
2022-09-07T19:52:24.217Z,21.28
2022-09-07T19:54:51.918Z,21.28
2022-09-07T19:57:19.811Z,21.30
2022-09-07T19:59:47.846Z,21.28
2022-09-07T20:02:15.866Z,21.28
2022-09-07T20:04:44.856Z,21.08
2022-09-07T20:07:13.098Z,21.12
2022-09-07T20:09:41.098Z,21.13
2022-09-07T20:12:09.475Z,21.20
2022-09-07T20:14:37.520Z,21.10
2022-09-07T20:17:05.237Z,20.96
2022-09-07T20:19:33.067Z,20.85
2022-09-07T20:22:02.140Z,20.90
2022-09-07T20:24:30.175Z,20.87
2022-09-07T20:26:58.162Z,20.79
2022-09-07T20:29:28.588Z,20.75
2022-09-07T20:31:58.386Z,20.73
2022-09-07T20:34:26.367Z,20.51
2022-09-07T20:36:54.688Z,20.46
2022-09-07T20:39:24.301Z,20.49
2022-09-07T20:41:52.198Z,20.51
2022-09-07T20:44:19.953Z,20.43
2022-09-07T20:46:47.621Z,20.28
2022-09-07T20:49:15.650Z,20.21
2022-09-07T20:51:43.257Z,20.10
2022-09-07T20:54:11.478Z,20.16
2022-09-07T20:56:40.513Z,20.15
2022-09-07T20:59:08.488Z,20.13
2022-09-07T21:01:36.556Z,20.07
2022-09-07T21:04:06.500Z,19.95
2022-09-07T21:06:34.951Z,19.99
2022-09-07T21:09:02.799Z,20.00
2022-09-07T21:11:32.024Z,19.99
2022-09-07T21:14:02.860Z,20.04
2022-09-07T21:16:31.315Z,20.00
2022-09-07T21:19:00.750Z,19.99
2022-09-07T21:21:30.247Z,19.93
2022-09-07T21:24:00.153Z,19.95
2022-09-07T21:26:29.682Z,19.76
2022-09-07T21:28:57.837Z,19.63
2022-09-07T21:31:27.990Z,19.54
2022-09-07T21:33:56.845Z,19.63
2022-09-07T21:36:25.472Z,19.97
2022-09-07T21:38:54.279Z,19.71
2022-09-07T21:41:25.452Z,19.90
2022-09-07T21:43:56.333Z,20.12
2022-09-07T21:46:25.325Z,19.87
2022-09-07T21:48:57.268Z,20.04
2022-09-07T21:51:25.748Z,20.30
2022-09-07T21:53:54.272Z,20.24
2022-09-07T21:56:22.945Z,20.23
2022-09-07T21:58:54.988Z,20.21
2022-09-07T22:01:24.231Z,20.34
2022-09-07T22:03:58.814Z,20.51
2022-09-07T22:06:28.762Z,20.51
2022-09-07T22:08:56.743Z,20.61
2022-09-07T22:11:26.718Z,20.53
2022-09-07T22:13:56.521Z,20.53
2022-09-07T22:16:25.162Z,20.52
2022-09-07T22:18:53.262Z,20.43
2022-09-07T22:21:25.246Z,20.34
2022-09-07T22:23:56.017Z,20.29
2022-09-07T22:26:26.691Z,20.25
2022-09-07T22:28:55.258Z,20.28
2022-09-07T22:31:25.150Z,20.21
2022-09-07T22:33:53.968Z,20.15
2022-09-07T22:36:24.907Z,20.10
2022-09-07T22:38:55.639Z,20.07
2022-09-07T22:41:26.696Z,20.02
2022-09-07T22:43:54.475Z,20.13
2022-09-07T22:46:24.600Z,20.06
2022-09-07T22:48:54.541Z,20.00
2022-09-07T22:51:26.152Z,19.94
2022-09-07T22:53:54.416Z,19.92
2022-09-07T22:56:24.905Z,19.87
2022-09-07T22:58:54.605Z,19.96
2022-09-07T23:01:23.388Z,19.93
2022-09-07T23:03:52.048Z,19.89
2022-09-07T23:06:27.022Z,20.00
2022-09-07T23:08:57.231Z,19.99
2022-09-07T23:11:26.122Z,19.93
2022-09-07T23:13:55.199Z,19.93
2022-09-07T23:16:23.579Z,19.97
2022-09-07T23:18:51.741Z,19.89
2022-09-07T23:21:20.201Z,19.81
2022-09-07T23:23:52.300Z,19.87
2022-09-07T23:26:20.421Z,19.91
2022-09-07T23:28:51.984Z,19.92
2022-09-07T23:31:20.024Z,20.08
2022-09-07T23:33:48.054Z,20.10
2022-09-07T23:36:16.275Z,20.22
2022-09-07T23:38:44.214Z,20.10
2022-09-07T23:41:14.815Z,20.08
2022-09-07T23:43:43.111Z,19.99
2022-09-07T23:46:11.913Z,20.04
2022-09-07T23:48:39.939Z,20.06
2022-09-07T23:51:08.215Z,20.04
2022-09-07T23:53:35.881Z,20.07
2022-09-07T23:56:05.010Z,20.09
2022-09-07T23:58:34.035Z,20.10
